Time;durP1;ratioP1;P1;durP2;ratioP2;P2;SDS_P1;SDS_P2;PMS_P1;PMS_P2;Temp;Humidity;BMP_temperature;BMP_pressure;BME280_temperature;BME280_humidity;BME280_pressure;Samples;Min_cycle;Max_cycle;Signal;HPM_P1;HPM_P2
2023/12/17 00:03:30;;;;;;;;;;;;;;;9.41;100;103666.5;;;;-78
2023/12/17 00:08:30;;;;;;;;;;;;;;;9.38;100;103656.7;;;;-79
2023/12/17 00:12:00;;;;;;;24.8;6.5;;;;;;;;;;;;;-80
2023/12/17 00:13:35;;;;;;;;;;;;;;;9.34;100;103663.7;;;;-79
2023/12/17 00:18:29;;;;;;;;;;;;;;;9.25;100;103659.6;;;;-79
2023/12/17 00:23:29;;;;;;;;;;;;;;;9.19;100;103644.5;;;;-79
2023/12/17 00:28:36;;;;;;;;;;;;;;;9.23;100;103628.8;;;;-78
2023/12/17 00:33:34;;;;;;;;;;;;;;;9.15;100;103630.9;;;;-79
2023/12/17 00:38:33;;;;;;;;;;;;;;;9.12;100;103623.9;;;;-78
2023/12/17 00:42:03;;;;;;;26.1;5.7;;;;;;;;;;;;;-78
2023/12/17 00:43:29;;;;;;;;;;;;;;;9.14;100;103616.8;;;;-79
2023/12/17 00:48:31;;;;;;;;;;;;;;;9.16;100;103613.7;;;;-78
2023/12/17 00:53:31;;;;;;;;;;;;;;;9.28;100;103615.3;;;;-79
2023/12/17 00:58:35;;;;;;;;;;;;;;;9.31;100;103611.9;;;;-79
2023/12/17 01:03:30;;;;;;;;;;;;;;;9.28;100;103602.3;;;;-80
2023/12/17 01:08:35;;;;;;;;;;;;;;;9.28;100;103602.8;;;;-78
2023/12/17 01:12:10;;;;;;;27;7.1;;;;;;;;;;;;;-79
2023/12/17 01:13:29;;;;;;;;;;;;;;;9.26;100;103601.8;;;;-79
2023/12/17 01:18:32;;;;;;;;;;;;;;;9.22;100;103600.2;;;;-86
2023/12/17 01:23:35;;;;;;;;;;;;;;;9.2;100;103603.8;;;;-89
2023/12/17 01:28:31;;;;;;;;;;;;;;;9.22;100;103602.3;;;;-86
2023/12/17 01:33:33;;;;;;;;;;;;;;;9.24;100;103602.8;;;;-89
2023/12/17 01:38:31;;;;;;;;;;;;;;;9.27;100;103606;;;;-87
2023/12/17 01:42:02;;;;;;;25.7;6.8;;;;;;;;;;;;;-87
2023/12/17 01:43:30;;;;;;;;;;;;;;;9.27;100;103609.9;;;;-87
2023/12/17 01:48:31;;;;;;;;;;;;;;;9.27;100;103609.1;;;;-89
2023/12/17 01:53:33;;;;;;;;;;;;;;;9.29;100;103611.7;;;;-88
2023/12/17 01:58:31;;;;;;;;;;;;;;;9.27;100;103618.1;;;;-86
2023/12/17 02:03:38;;;;;;;;;;;;;;;9.27;100;103624.3;;;;-89
2023/12/17 02:08:35;;;;;;;;;;;;;;;9.27;100;103630.1;;;;-87
2023/12/17 02:12:04;;;;;;;28;5.7;;;;;;;;;;;;;-88
2023/12/17 02:13:31;;;;;;;;;;;;;;;9.31;100;103635.9;;;;-87
2023/12/17 02:18:39;;;;;;;;;;;;;;;9.35;100;103637.3;;;;-89
2023/12/17 02:23:40;;;;;;;;;;;;;;;9.36;100;103632;;;;-88
2023/12/17 02:28:35;;;;;;;;;;;;;;;9.45;100;103622.2;;;;-89
2023/12/17 02:33:31;;;;;;;;;;;;;;;9.43;100;103619.1;;;;-88
2023/12/17 02:38:48;;;;;;;;;;;;;;;9.44;100;103617.6;;;;-87
2023/12/17 02:42:11;;;;;;;17.3;5.4;;;;;;;;;;;;;-88
2023/12/17 02:43:41;;;;;;;;;;;;;;;9.39;100;103617.8;;;;-89
2023/12/17 02:48:41;;;;;;;;;;;;;;;9.39;100;103609.9;;;;-88
2023/12/17 02:53:40;;;;;;;;;;;;;;;9.4;100;103602.8;;;;-88
2023/12/17 02:58:37;;;;;;;;;;;;;;;9.37;100;103600.7;;;;-87
2023/12/17 03:03:35;;;;;;;;;;;;;;;9.32;100;103601.8;;;;-87
2023/12/17 03:08:37;;;;;;;;;;;;;;;9.3;100;103601.2;;;;-87
2023/12/17 03:12:08;;;;;;;17.4;5.8;;;;;;;;;;;;;-88
2023/12/17 03:13:31;;;;;;;;;;;;;;;9.32;100;103599;;;;-87
2023/12/17 03:18:31;;;;;;;;;;;;;;;9.4;100;103599.2;;;;-87
2023/12/17 03:23:39;;;;;;;;;;;;;;;9.41;100;103584.3;;;;-87
2023/12/17 03:28:31;;;;;;;;;;;;;;;9.44;100;103583.4;;;;-78
2023/12/17 03:33:29;;;;;;;;;;;;;;;9.38;100;103589.7;;;;-80
2023/12/17 03:38:30;;;;;;;;;;;;;;;9.38;100;103582.3;;;;-79
2023/12/17 03:42:06;;;;;;;15.3;4.3;;;;;;;;;;;;;-79
2023/12/17 03:43:29;;;;;;;;;;;;;;;9.35;100;103575.8;;;;-78
2023/12/17 03:48:32;;;;;;;;;;;;;;;9.31;100;103573.3;;;;-79
2023/12/17 03:53:31;;;;;;;;;;;;;;;9.33;100;103559.5;;;;-79
2023/12/17 03:58:30;;;;;;;;;;;;;;;9.06;100;103504.1;;;;-79
2023/12/17 04:03:34;;;;;;;;;;;;;;;9.31;100;103550.7;;;;-80
2023/12/17 04:08:31;;;;;;;;;;;;;;;9.28;100;103550.2;;;;-79
2023/12/17 04:12:07;;;;;;;15.4;3.8;;;;;;;;;;;;;-82
2023/12/17 04:13:29;;;;;;;;;;;;;;;9.27;100;103552.6;;;;-78
2023/12/17 04:18:29;;;;;;;;;;;;;;;9.23;100;103551.6;;;;-78
2023/12/17 04:23:29;;;;;;;;;;;;;;;9.24;100;103556.7;;;;-79
2023/12/17 04:28:31;;;;;;;;;;;;;;;9.21;100;103554.1;;;;-79
2023/12/17 04:33:37;;;;;;;;;;;;;;;9.18;100;103548.9;;;;-79
2023/12/17 04:38:29;;;;;;;;;;;;;;;9.16;100;103545.8;;;;-79
2023/12/17 04:42:07;;;;;;;18.7;3.7;;;;;;;;;;;;;-82
2023/12/17 04:43:34;;;;;;;;;;;;;;;9.19;100;103536.9;;;;-78
2023/12/17 04:48:29;;;;;;;;;;;;;;;9.15;100;103529.3;;;;-79
2023/12/17 04:53:30;;;;;;;;;;;;;;;9.14;100;103517.5;;;;-80
2023/12/17 04:58:29;;;;;;;;;;;;;;;9.16;100;103505.6;;;;-78
2023/12/17 05:03:33;;;;;;;;;;;;;;;9.17;100;103513.9;;;;-79
2023/12/17 05:08:29;;;;;;;;;;;;;;;9.14;100;103514.7;;;;-78
2023/12/17 05:12:11;;;;;;;15.5;3.9;;;;;;;;;;;;;-80
2023/12/17 05:13:30;;;;;;;;;;;;;;;9.15;100;103523.8;;;;-77
2023/12/17 05:18:29;;;;;;;;;;;;;;;9.14;100;103522.8;;;;-80
2023/12/17 05:23:31;;;;;;;;;;;;;;;9.12;100;103530.1;;;;-77
2023/12/17 05:28:37;;;;;;;;;;;;;;;9.07;100;103534.4;;;;-78
2023/12/17 05:33:37;;;;;;;;;;;;;;;9.09;100;103528.8;;;;-78
2023/12/17 05:38:29;;;;;;;;;;;;;;;9.09;100;103530.8;;;;-79
2023/12/17 05:42:10;;;;;;;15;3.8;;;;;;;;;;;;;-79
2023/12/17 05:43:29;;;;;;;;;;;;;;;9.08;100;103534.1;;;;-78
2023/12/17 05:48:29;;;;;;;;;;;;;;;9.07;100;103536.6;;;;-79
2023/12/17 05:53:41;;;;;;;;;;;;;;;9.04;100;103543.8;;;;-80
2023/12/17 05:58:29;;;;;;;;;;;;;;;9.01;100;103542.2;;;;-78
2023/12/17 06:03:31;;;;;;;;;;;;;;;8.95;100;103537.2;;;;-79
2023/12/17 06:08:29;;;;;;;;;;;;;;;8.9;100;103548.7;;;;-78
2023/12/17 06:12:14;;;;;;;21.1;6.6;;;;;;;;;;;;;-87
2023/12/17 06:13:35;;;;;;;;;;;;;;;8.82;100;103538.6;;;;-88
2023/12/17 06:18:31;;;;;;;;;;;;;;;8.77;100;103531.3;;;;-87
2023/12/17 06:23:36;;;;;;;;;;;;;;;8.75;100;103526.2;;;;-87
2023/12/17 06:28:30;;;;;;;;;;;;;;;8.75;100;103526.9;;;;-84
2023/12/17 06:33:36;;;;;;;;;;;;;;;8.73;100;103528.8;;;;-85
2023/12/17 06:38:48;;;;;;;;;;;;;;;8.75;100;103531.7;;;;-86
2023/12/17 06:42:20;;;;;;;31.4;8.4;;;;;;;;;;;;;-88
2023/12/17 06:43:39;;;;;;;;;;;;;;;8.77;100;103544.6;;;;-87
2023/12/17 06:48:30;;;;;;;;;;;;;;;8.81;100;103540.5;;;;-86
2023/12/17 06:53:30;;;;;;;;;;;;;;;8.83;100;103525.3;;;;-86
2023/12/17 06:58:37;;;;;;;;;;;;;;;8.71;100;103516.3;;;;-88
2023/12/17 07:03:36;;;;;;;;;;;;;;;8.89;100;103542.8;;;;-87
2023/12/17 07:08:31;;;;;;;;;;;;;;;8.91;100;103535.5;;;;-87
2023/12/17 07:12:13;;;;;;;26.1;5.9;;;;;;;;;;;;;-86
2023/12/17 07:13:32;;;;;;;;;;;;;;;8.91;100;103523.5;;;;-87
2023/12/17 07:18:35;;;;;;;;;;;;;;;8.92;100;103525.2;;;;-88
2023/12/17 07:23:40;;;;;;;;;;;;;;;8.97;100;103531.1;;;;-87
2023/12/17 07:33:51;;;;;;;;;;;;;;;8.97;100;103541.1;;;;-87
2023/12/17 07:38:31;;;;;;;;;;;;;;;8.97;100;103543.1;;;;-86
2023/12/17 07:42:12;;;;;;;24.5;6.2;;;;;;;;;;;;;-87
2023/12/17 07:43:29;;;;;;;;;;;;;;;8.94;100;103548.9;;;;-87
2023/12/17 07:48:31;;;;;;;;;;;;;;;8.91;100;103549.8;;;;-87
2023/12/17 07:53:31;;;;;;;;;;;;;;;8.87;100;103553.8;;;;-87
2023/12/17 07:58:37;;;;;;;;;;;;;;;8.82;100;103557.6;;;;-88
2023/12/17 08:03:33;;;;;;;;;;;;;;;8.81;100;103564.2;;;;-87
2023/12/17 08:08:36;;;;;;;;;;;;;;;8.76;100;103547.7;;;;-86
2023/12/17 08:12:12;;;;;;;28.6;10.3;;;;;;;;;;;;;-88
2023/12/17 08:13:29;;;;;;;;;;;;;;;8.77;100;103549.5;;;;-88
2023/12/17 08:18:45;;;;;;;;;;;;;;;8.77;100;103560.2;;;;-87
2023/12/17 08:23:36;;;;;;;;;;;;;;;8.77;100;103562.3;;;;-88
2023/12/17 08:28:31;;;;;;;;;;;;;;;8.74;100;103558.3;;;;-86
2023/12/17 08:33:31;;;;;;;;;;;;;;;8.77;100;103570.6;;;;-86
2023/12/17 08:38:45;;;;;;;;;;;;;;;8.78;100;103559.4;;;;-87
2023/12/17 08:42:11;;;;;;;35.9;15.6;;;;;;;;;;;;;-88
2023/12/17 08:43:31;;;;;;;;;;;;;;;8.81;100;103550.5;;;;-87
2023/12/17 08:48:40;;;;;;;;;;;;;;;8.82;100;103555;;;;-86
2023/12/17 08:53:42;;;;;;;;;;;;;;;8.79;100;103554.4;;;;-89
2023/12/17 08:58:33;;;;;;;;;;;;;;;8.79;100;103558.3;;;;-87
2023/12/17 09:03:33;;;;;;;;;;;;;;;8.79;100;103548.7;;;;-87
2023/12/17 09:08:29;;;;;;;;;;;;;;;8.81;100;103552.6;;;;-87
2023/12/17 09:12:18;;;;;;;35;14.7;;;;;;;;;;;;;-86
2023/12/17 09:13:37;;;;;;;;;;;;;;;8.82;100;103541.8;;;;-86
2023/12/17 09:18:41;;;;;;;;;;;;;;;8.86;100;103548.5;;;;-86
2023/12/17 09:23:40;;;;;;;;;;;;;;;8.86;100;103539.6;;;;-85
2023/12/17 09:28:35;;;;;;;;;;;;;;;8.87;100;103534.2;;;;-84
2023/12/17 09:33:36;;;;;;;;;;;;;;;8.88;100;103530.6;;;;-87
2023/12/17 09:38:38;;;;;;;;;;;;;;;8.91;100;103544;;;;-86
2023/12/17 09:42:17;;;;;;;31.5;14.6;;;;;;;;;;;;;-87
2023/12/17 09:43:34;;;;;;;;;;;;;;;8.91;100;103535.7;;;;-85
2023/12/17 09:48:33;;;;;;;;;;;;;;;8.88;100;103527;;;;-87
2023/12/17 09:53:34;;;;;;;;;;;;;;;8.82;100;103531.4;;;;-87
2023/12/17 09:58:30;;;;;;;;;;;;;;;8.78;100;103526.6;;;;-86
2023/12/17 10:03:32;;;;;;;;;;;;;;;8.83;100;103524.9;;;;-86
2023/12/17 10:08:38;;;;;;;;;;;;;;;8.83;100;103523.8;;;;-88
2023/12/17 10:12:15;;;;;;;33.6;14.2;;;;;;;;;;;;;-86
2023/12/17 10:13:41;;;;;;;;;;;;;;;8.93;100;103514;;;;-86
2023/12/17 10:18:33;;;;;;;;;;;;;;;8.98;100;103517.5;;;;-87
2023/12/17 10:23:30;;;;;;;;;;;;;;;8.99;100;103515;;;;-85
2023/12/17 10:28:33;;;;;;;;;;;;;;;9;100;103508.2;;;;-86
2023/12/17 10:33:42;;;;;;;;;;;;;;;9.03;100;103500;;;;-86
2023/12/17 10:38:39;;;;;;;;;;;;;;;8.97;100;103498.5;;;;-86
2023/12/17 10:42:16;;;;;;;34.1;19.8;;;;;;;;;;;;;-86
2023/12/17 10:43:36;;;;;;;;;;;;;;;8.97;100;103494.2;;;;-86
2023/12/17 10:48:30;;;;;;;;;;;;;;;8.95;100;103490.3;;;;-85
2023/12/17 11:03:44;;;;;;;;;;;;;;;8.95;100;103475;;;;-88
2023/12/17 11:08:43;;;;;;;;;;;;;;;8.93;100;103478.6;;;;-88
2023/12/17 11:12:16;;;;;;;34;18.1;;;;;;;;;;;;;-87
2023/12/17 11:13:45;;;;;;;;;;;;;;;8.92;100;103466.5;;;;-88
2023/12/17 11:18:48;;;;;;;;;;;;;;;8.97;100;103457.9;;;;-87
2023/12/17 11:23:48;;;;;;;;;;;;;;;8.83;100;103453;;;;-88
2023/12/17 11:33:30;;;;;;;;;;;;;;;8.89;100;103450.5;;;;-87
2023/12/17 11:38:31;;;;;;;;;;;;;;;8.88;100;103444.2;;;;-87
2023/12/17 11:42:25;;;;;;;31.5;16.3;;;;;;;;;;;;;-87
2023/12/17 11:43:35;;;;;;;;;;;;;;;8.91;100;103440.1;;;;-87
2023/12/17 11:48:36;;;;;;;;;;;;;;;9.04;100;103439;;;;-88
2023/12/17 11:53:33;;;;;;;;;;;;;;;9.19;100;103431.2;;;;-87
2023/12/17 12:03:34;;;;;;;;;;;;;;;9.47;100;103416.6;;;;-88
2023/12/17 12:08:37;;;;;;;;;;;;;;;9.31;100;103409.9;;;;-88
2023/12/17 12:12:30;;;;;;;32.4;15.1;;;;;;;;;;;;;-89
2023/12/17 12:13:34;;;;;;;;;;;;;;;9.16;100;103396.8;;;;-88
2023/12/17 12:18:41;;;;;;;;;;;;;;;9.09;100;103390.5;;;;-88
2023/12/17 12:23:46;;;;;;;;;;;;;;;9.13;100;103388.5;;;;-89
2023/12/17 12:28:40;;;;;;;;;;;;;;;9.29;100;103366.9;;;;-89
2023/12/17 12:33:42;;;;;;;;;;;;;;;10.11;100;103356.1;;;;-90
2023/12/17 12:38:42;;;;;;;;;;;;;;;10.45;100;103357.4;;;;-90
2023/12/17 12:43:49;;;;;;;;;;;;;;;10.57;100;103353.6;;;;-88
2023/12/17 12:48:36;;;;;;;;;;;;;;;10.6;100;103345.5;;;;-87
2023/12/17 12:53:45;;;;;;;;;;;;;;;9.94;100;103333.8;;;;-85
2023/12/17 12:58:46;;;;;;;;;;;;;;;9.67;100;103320;;;;-86
2023/12/17 13:08:40;;;;;;;;;;;;;;;9.57;100;103307.7;;;;-87
2023/12/17 13:12:21;;;;;;;25.8;10.3;;;;;;;;;;;;;-87
2023/12/17 13:18:40;;;;;;;;;;;;;;;10.09;100;103296.5;;;;-87
2023/12/17 13:23:49;;;;;;;;;;;;;;;10.74;100;103293.4;;;;-86
2023/12/17 13:28:33;;;;;;;;;;;;;;;10.96;100;103290.7;;;;-87
2023/12/17 13:33:50;;;;;;;;;;;;;;;10.68;100;103280.2;;;;-87
2023/12/17 13:38:40;;;;;;;;;;;;;;;10.12;100;103267.9;;;;-87
2023/12/17 13:42:20;;;;;;;13.9;3;;;;;;;;;;;;;-87
2023/12/17 13:43:34;;;;;;;;;;;;;;;9.96;100;103266.6;;;;-87
2023/12/17 13:48:32;;;;;;;;;;;;;;;9.85;100;103257.1;;;;-86
2023/12/17 13:53:34;;;;;;;;;;;;;;;9.74;100;103259.6;;;;-86
2023/12/17 13:58:41;;;;;;;;;;;;;;;9.72;100;103256.2;;;;-87
2023/12/17 14:03:52;;;;;;;;;;;;;;;9.64;100;103250.7;;;;-87
2023/12/17 14:08:36;;;;;;;;;;;;;;;9.55;100;103241.9;;;;-88
2023/12/17 14:12:34;;;;;;;14.5;3.1;;;;;;;;;;;;;-85
2023/12/17 14:13:35;;;;;;;;;;;;;;;9.48;100;103233.4;;;;-86
2023/12/17 14:18:43;;;;;;;;;;;;;;;9.37;100;103224.6;;;;-87
2023/12/17 14:23:41;;;;;;;;;;;;;;;9.2;100;103209.9;;;;-88
2023/12/17 14:28:45;;;;;;;;;;;;;;;9.14;100;103217.9;;;;-87
2023/12/17 14:33:41;;;;;;;;;;;;;;;9.02;100;103204.9;;;;-88
2023/12/17 14:38:43;;;;;;;;;;;;;;;8.97;100;103206.3;;;;-87
2023/12/17 14:42:32;;;;;;;20;3.6;;;;;;;;;;;;;-86
2023/12/17 14:43:30;;;;;;;;;;;;;;;8.91;100;103191.9;;;;-87
2023/12/17 14:48:45;;;;;;;;;;;;;;;8.85;100;103185.5;;;;-86
2023/12/17 14:53:44;;;;;;;;;;;;;;;8.77;100;103192.5;;;;-85
2023/12/17 14:58:31;;;;;;;;;;;;;;;8.71;100;103193.7;;;;-87
2023/12/17 15:03:39;;;;;;;;;;;;;;;8.6;100;103200.6;;;;-86
2023/12/17 15:08:32;;;;;;;;;;;;;;;8.56;100;103196.5;;;;-84
2023/12/17 15:12:22;;;;;;;20.3;3.6;;;;;;;;;;;;;-84
2023/12/17 15:13:30;;;;;;;;;;;;;;;8.5;100;103191.7;;;;-84
2023/12/17 15:18:31;;;;;;;;;;;;;;;8.44;100;103191.5;;;;-84
2023/12/17 15:23:39;;;;;;;;;;;;;;;8.45;100;103190.4;;;;-84
2023/12/17 15:28:31;;;;;;;;;;;;;;;8.44;100;103188.5;;;;-84
2023/12/17 15:33:36;;;;;;;;;;;;;;;8.53;100;103198;;;;-84
2023/12/17 15:38:31;;;;;;;;;;;;;;;8.41;100;103194.1;;;;-86
2023/12/17 15:42:21;;;;;;;14.8;3.5;;;;;;;;;;;;;-86
2023/12/17 15:43:32;;;;;;;;;;;;;;;8.42;100;103193.4;;;;-86
2023/12/17 15:48:29;;;;;;;;;;;;;;;8.56;100;103188.3;;;;-86
2023/12/17 15:53:33;;;;;;;;;;;;;;;8.53;100;103186.5;;;;-87
2023/12/17 15:58:39;;;;;;;;;;;;;;;8.41;100;103186.8;;;;-86
2023/12/17 16:03:48;;;;;;;;;;;;;;;8.27;100;103195.7;;;;-88
2023/12/17 16:12:25;;;;;;;13.3;4;;;;;;;;;;;;;-86
2023/12/17 16:13:37;;;;;;;;;;;;;;;8.15;100;103193.2;;;;-87
2023/12/17 16:18:29;;;;;;;;;;;;;;;8.11;100;103186.6;;;;-85
2023/12/17 16:23:31;;;;;;;;;;;;;;;8.03;100;103196.7;;;;-88
2023/12/17 16:28:35;;;;;;;;;;;;;;;7.83;100;103194.9;;;;-87
2023/12/17 16:33:34;;;;;;;;;;;;;;;7.71;100;103185.2;;;;-88
2023/12/17 16:38:46;;;;;;;;;;;;;;;7.71;100;103189.9;;;;-88
2023/12/17 16:42:32;;;;;;;;;;;;;;;;;;;;;
2023/12/17 16:43:36;;;;;;;;;;;;;;;7.62;100;103189.1;;;;-90
2023/12/17 16:54:04;;;;;;;;;;;;;;;7.43;100;103174.3;;;;-88
2023/12/17 17:04:01;;;;;;;;;;;;;;;7.33;100;103187.3;;;;-88
2023/12/17 17:08:41;;;;;;;;;;;;;;;7.24;100;103184.8;;;;-87
2023/12/17 17:12:34;;;;;;;18.9;5.9;;;;;;;;;;;;;-89
